createdAt,value
2016-07-30T00:00:00.077Z,87.82
2016-07-30T00:01:00.080Z,87.49
2016-07-30T00:02:00.080Z,88.07
2016-07-30T00:03:00.081Z,87.88
2016-07-30T00:04:00.080Z,87.98
2016-07-30T00:05:00.084Z,87.98
2016-07-30T00:06:00.086Z,87.68
2016-07-30T00:08:00.089Z,87.98
2016-07-30T00:09:00.089Z,88.45
2016-07-30T00:10:00.088Z,88.26
2016-07-30T00:11:00.093Z,88.07
2016-07-30T00:12:00.093Z,88.74
2016-07-30T00:13:00.093Z,88.45
2016-07-30T00:14:00.114Z,88.84
2016-07-30T00:15:00.097Z,88.65
2016-07-30T00:16:00.103Z,88.65
2016-07-30T00:17:00.102Z,88.65
2016-07-30T00:18:00.107Z,88.55
2016-07-30T00:19:00.102Z,89.32
2016-07-30T00:19:59.641Z,89.22
2016-07-30T00:21:00.105Z,89.12
2016-07-30T00:22:00.104Z,89.32
2016-07-30T00:23:00.106Z,89.41
2016-07-30T00:24:00.109Z,89.32
2016-07-30T00:25:00.109Z,89.22
2016-07-30T00:26:00.110Z,89.61
2016-07-30T00:27:00.113Z,89.18
2016-07-30T00:28:00.113Z,89.41
2016-07-30T00:29:00.114Z,89.7
2016-07-30T00:30:00.119Z,89.56
2016-07-30T00:31:00.118Z,89.37
2016-07-30T00:32:00.119Z,89.99
2016-07-30T00:33:00.118Z,89.7
2016-07-30T00:34:00.133Z,89.56
2016-07-30T00:35:00.122Z,89.56
2016-07-30T00:36:00.122Z,89.94
2016-07-30T00:38:00.126Z,89.65
2016-07-30T00:39:00.134Z,89.65
2016-07-30T00:40:00.130Z,89.75
2016-07-30T00:41:00.130Z,89.94
2016-07-30T00:42:00.130Z,90.42
2016-07-30T00:43:00.130Z,89.47
2016-07-30T00:44:00.145Z,90.14
2016-07-30T00:45:00.133Z,90.14
2016-07-30T00:46:00.134Z,90.14
2016-07-30T00:47:00.186Z,90.14
2016-07-30T00:48:00.138Z,89.94
2016-07-30T00:49:00.138Z,89.94
2016-07-30T00:50:00.142Z,90.04
2016-07-30T00:51:00.141Z,90.23
2016-07-30T00:52:00.142Z,90.33
2016-07-30T00:53:00.145Z,90.04
2016-07-30T00:54:00.146Z,90.23
2016-07-30T00:55:00.146Z,90.42
2016-07-30T00:56:00.148Z,90.42
2016-07-30T00:57:00.151Z,90.61
2016-07-30T00:58:00.150Z,90.33
2016-07-30T00:59:00.150Z,90.81
2016-07-30T01:00:00.166Z,90.14
2016-07-30T01:01:00.154Z,90.23
2016-07-30T01:02:00.154Z,90.81
2016-07-30T01:03:00.156Z,90.9
2016-07-30T01:04:00.159Z,91.09
2016-07-30T01:05:00.158Z,90.52
2016-07-30T01:06:00.159Z,90.9
2016-07-30T01:07:00.163Z,90.81
2016-07-30T01:08:00.163Z,90.81
2016-07-30T01:09:00.163Z,90.61
2016-07-30T01:10:00.162Z,91.28
2016-07-30T01:10:59.463Z,91.48
2016-07-30T01:12:00.167Z,91.48
2016-07-30T01:13:00.167Z,91.38
2016-07-30T01:14:00.167Z,91
2016-07-30T01:15:00.171Z,91.38
2016-07-30T01:16:00.171Z,91.09
2016-07-30T01:16:59.467Z,90.81
2016-07-30T01:18:00.175Z,91
2016-07-30T01:19:00.188Z,91.53
2016-07-30T01:20:00.176Z,91.63
2016-07-30T01:21:00.175Z,91.43
2016-07-30T01:22:00.180Z,91.38
2016-07-30T01:23:00.179Z,91.43
2016-07-30T01:24:00.179Z,91.63
2016-07-30T01:25:00.183Z,91.24
2016-07-30T01:26:00.184Z,91.24
2016-07-30T01:27:00.183Z,91.63
2016-07-30T01:28:00.190Z,91.53
2016-07-30T01:29:00.188Z,91.72
2016-07-30T01:30:00.187Z,91.43
2016-07-30T01:31:00.188Z,91.63
2016-07-30T01:32:00.192Z,91.53
2016-07-30T01:33:00.191Z,91.43
2016-07-30T01:34:00.192Z,92.1
2016-07-30T01:35:00.192Z,91.91
2016-07-30T01:36:00.196Z,92.01
2016-07-30T01:37:00.196Z,91.91
2016-07-30T01:38:00.196Z,92.01
2016-07-30T01:39:00.200Z,92.2
2016-07-30T01:40:00.200Z,92.01
2016-07-30T01:41:00.200Z,91.91
2016-07-30T01:42:00.200Z,91.91
2016-07-30T01:43:00.203Z,92.01
2016-07-30T01:44:00.204Z,91.82
2016-07-30T01:45:00.204Z,91.82
2016-07-30T01:46:00.203Z,91.82
2016-07-30T01:47:00.207Z,92.39
2016-07-30T01:48:00.211Z,92.01
2016-07-30T01:49:00.208Z,92.39
2016-07-30T01:50:00.207Z,92.3
2016-07-30T01:51:00.212Z,92.3
2016-07-30T01:52:00.211Z,92.2
2016-07-30T01:53:00.212Z,91.91
2016-07-30T01:54:00.216Z,91.91
2016-07-30T01:55:00.216Z,92.01
2016-07-30T01:56:00.216Z,91.91
2016-07-30T01:57:00.216Z,92.1
2016-07-30T01:58:00.220Z,92.3
2016-07-30T01:59:00.219Z,91.82
2016-07-30T02:00:00.219Z,92.1
2016-07-30T02:01:00.221Z,92.1
2016-07-30T02:02:00.224Z,92.06
2016-07-30T02:03:00.223Z,91.96
2016-07-30T02:04:00.224Z,91.96
2016-07-30T02:05:00.224Z,92.63
2016-07-30T02:06:00.228Z,92.06
2016-07-30T02:07:00.240Z,92.54
2016-07-30T02:08:00.232Z,92.44
2016-07-30T02:09:00.229Z,92.35
2016-07-30T02:10:00.232Z,92.25
2016-07-30T02:11:00.236Z,92.44
2016-07-30T02:12:00.232Z,92.73
2016-07-30T02:13:00.232Z,92.82
2016-07-30T02:14:00.237Z,92.44
2016-07-30T02:15:00.237Z,92.63
2016-07-30T02:16:00.236Z,93.21
2016-07-30T02:17:00.236Z,93.21
2016-07-30T02:18:00.241Z,93.11
2016-07-30T02:19:00.240Z,93.02
2016-07-30T02:20:00.240Z,93.21
2016-07-30T02:21:00.244Z,93.21
2016-07-30T02:22:00.245Z,92.82
2016-07-30T02:23:00.244Z,93.11
2016-07-30T02:24:00.245Z,92.82
2016-07-30T02:25:00.249Z,93.21
2016-07-30T02:26:00.249Z,93.21
2016-07-30T02:27:00.249Z,93.11
2016-07-30T02:28:00.250Z,92.92
2016-07-30T02:29:00.249Z,93.3
2016-07-30T02:30:00.252Z,93.59
2016-07-30T02:31:00.252Z,93.78
2016-07-30T02:32:00.252Z,93.69
2016-07-30T02:33:00.253Z,93.88
2016-07-30T02:34:00.265Z,93.59
2016-07-30T02:35:00.257Z,93.69
2016-07-30T02:36:00.257Z,93.16
2016-07-30T02:37:00.256Z,93.59
2016-07-30T02:38:00.261Z,93.59
2016-07-30T02:39:00.261Z,93.69
2016-07-30T02:40:00.261Z,93.49
2016-07-30T02:41:00.260Z,94.07
2016-07-30T02:42:00.265Z,94.07
2016-07-30T02:43:00.265Z,94.07
2016-07-30T02:44:00.265Z,93.49
2016-07-30T02:45:00.264Z,93.69
2016-07-30T02:46:00.269Z,93.3
2016-07-30T02:47:00.270Z,93.16
2016-07-30T02:48:00.270Z,93.3
2016-07-30T02:49:00.270Z,93.3
2016-07-30T02:50:00.269Z,93.59
2016-07-30T02:51:00.272Z,93.21
2016-07-30T02:52:00.273Z,93.49
2016-07-30T02:53:00.280Z,93.49
2016-07-30T02:54:00.273Z,94.26
2016-07-30T02:55:00.284Z,94.07
2016-07-30T02:56:00.277Z,94.07
2016-07-30T02:57:00.279Z,94.02
2016-07-30T02:58:00.276Z,93.88
2016-07-30T02:59:00.284Z,94.12
2016-07-30T03:00:00.281Z,94.02
2016-07-30T03:01:00.285Z,93.83
2016-07-30T03:02:00.281Z,94.02
2016-07-30T03:03:00.284Z,93.83
2016-07-30T03:04:00.285Z,94.07
2016-07-30T03:05:00.285Z,94.12
2016-07-30T03:06:00.284Z,94.21
2016-07-30T03:07:00.289Z,94.31
2016-07-30T03:08:00.289Z,94.17
2016-07-30T03:09:00.289Z,94.26
2016-07-30T03:10:00.293Z,94.4
2016-07-30T03:11:00.289Z,94.26
2016-07-30T03:12:00.294Z,94.02
2016-07-30T03:13:00.294Z,94.02
2016-07-30T03:14:00.294Z,94.12
2016-07-30T03:15:00.294Z,94.02
2016-07-30T03:16:00.297Z,94.21
2016-07-30T03:17:00.298Z,94.4
2016-07-30T03:18:00.298Z,94.69
2016-07-30T03:19:00.298Z,94.5
2016-07-30T03:20:00.297Z,94.31
2016-07-30T03:21:00.301Z,94.02
2016-07-30T03:22:00.301Z,94.5
2016-07-30T03:23:00.301Z,94.6
2016-07-30T03:24:00.302Z,94.6
2016-07-30T03:25:00.301Z,94.6
2016-07-30T03:26:00.310Z,94.5
2016-07-30T03:27:00.305Z,94.89
2016-07-30T03:28:00.305Z,94.6
2016-07-30T03:29:00.305Z,94.69
2016-07-30T03:30:00.309Z,94.89
2016-07-30T03:31:00.310Z,94.69
2016-07-30T03:32:00.309Z,95.07
2016-07-30T03:33:00.313Z,94.89
2016-07-30T03:34:00.310Z,95.07
2016-07-30T03:35:00.309Z,94.89
2016-07-30T03:36:00.314Z,94.69
2016-07-30T03:37:00.314Z,94.79
2016-07-30T03:38:00.314Z,94.69
2016-07-30T03:39:00.314Z,94.89
2016-07-30T03:40:00.318Z,94.5
2016-07-30T03:41:00.318Z,94.6
2016-07-30T03:42:00.318Z,94.5
2016-07-30T03:43:00.318Z,94.5
2016-07-30T03:44:00.318Z,94.69
2016-07-30T03:45:00.322Z,94.69
2016-07-30T03:46:00.322Z,94.98
2016-07-30T03:47:00.322Z,95.07
2016-07-30T03:48:00.321Z,94.69
2016-07-30T03:49:00.330Z,95.36
2016-07-30T03:50:00.334Z,95.17
2016-07-30T03:51:00.327Z,94.89
2016-07-30T03:52:00.326Z,94.98
2016-07-30T03:53:00.327Z,94.79
2016-07-30T03:54:00.326Z,95.17
2016-07-30T03:55:00.330Z,94.89
2016-07-30T03:56:00.330Z,94.89
2016-07-30T03:57:00.329Z,94.98
2016-07-30T03:58:00.330Z,95.36
2016-07-30T03:59:00.330Z,95.46
2016-07-30T04:00:00.335Z,95.36
2016-07-30T04:01:00.335Z,95.36
2016-07-30T04:02:00.335Z,95.36
2016-07-30T04:03:00.334Z,95.17
2016-07-30T04:04:00.335Z,95.75
2016-07-30T04:05:00.339Z,95.94
2016-07-30T04:06:00.338Z,95.36
2016-07-30T04:07:00.338Z,95.36
2016-07-30T04:08:00.339Z,95.07
2016-07-30T04:09:00.339Z,95.07
2016-07-30T04:10:00.343Z,95.65
2016-07-30T04:11:00.342Z,95.27
2016-07-30T04:12:00.342Z,95.27
2016-07-30T04:13:00.347Z,94.69
2016-07-30T04:14:00.342Z,95.27
2016-07-30T04:15:00.347Z,95.27
2016-07-30T04:16:00.347Z,95.27
2016-07-30T04:17:00.347Z,95.07
2016-07-30T04:18:00.347Z,95.65
2016-07-30T04:19:00.351Z,95.27
2016-07-30T04:20:00.351Z,95.17
2016-07-30T04:21:00.351Z,95.65
2016-07-30T04:22:00.351Z,95.36
2016-07-30T04:23:00.351Z,95.17
2016-07-30T04:24:00.351Z,95.17
2016-07-30T04:25:00.355Z,94.98
2016-07-30T04:26:00.358Z,95.65
2016-07-30T04:27:00.356Z,95.07
2016-07-30T04:28:00.355Z,95.56
2016-07-30T04:29:00.356Z,96.03
2016-07-30T04:30:00.355Z,96.08
2016-07-30T04:31:00.359Z,95.98
2016-07-30T04:32:00.359Z,95.75
2016-07-30T04:33:00.359Z,95.65
2016-07-30T04:34:00.359Z,95.79
2016-07-30T04:35:00.364Z,95.36
2016-07-30T04:36:00.363Z,95.03
2016-07-30T04:37:00.364Z,94.35
2016-07-30T04:39:00.364Z,92.24
2016-07-30T04:40:00.371Z,91.32
2016-07-30T04:41:00.367Z,89.92
2016-07-30T04:42:00.367Z,88.71
2016-07-30T04:43:00.368Z,87.03
2016-07-30T04:44:00.367Z,86.01
2016-07-30T04:45:00.368Z,83.12
2016-07-30T04:46:00.372Z,81.43
2016-07-30T04:47:00.372Z,79.39
2016-07-30T04:48:00.372Z,77.4
2016-07-30T04:49:00.371Z,75.67
2016-07-30T04:50:00.372Z,73.28
2016-07-30T04:51:00.375Z,71.88
2016-07-30T04:52:00.375Z,70.46
2016-07-30T04:54:00.376Z,65.47
2016-07-30T04:55:00.376Z,62.79
2016-07-30T04:56:00.381Z,61.76
2016-07-30T04:57:00.381Z,60.5
2016-07-30T04:58:00.380Z,60.01
2016-07-30T04:59:00.380Z,59.07
2016-07-30T05:00:00.381Z,59.27
2016-07-30T05:01:00.384Z,57.62
2016-07-30T05:02:00.384Z,56.87
2016-07-30T05:03:00.385Z,54.55
2016-07-30T05:04:00.385Z,54.77
2016-07-30T05:05:00.389Z,53.89
2016-07-30T05:06:00.387Z,53.05
2016-07-30T05:07:00.389Z,52.66
2016-07-30T05:08:00.388Z,51.91
2016-07-30T05:09:00.389Z,51.06
2016-07-30T05:10:00.389Z,50.89
2016-07-30T05:10:59.688Z,49.56
2016-07-30T05:12:00.393Z,48.41
2016-07-30T05:13:00.393Z,47.56
2016-07-30T05:14:00.392Z,46.23
2016-07-30T05:15:00.396Z,45.47
2016-07-30T05:16:00.396Z,45.1
2016-07-30T05:17:00.397Z,44.15
2016-07-30T05:18:00.397Z,42.8
2016-07-30T05:19:00.402Z,41.95
2016-07-30T05:20:00.402Z,41.09
2016-07-30T05:21:00.401Z,39.67
2016-07-30T05:22:00.402Z,38.42
2016-07-30T05:23:00.404Z,37.75
2016-07-30T05:24:00.405Z,36.88
2016-07-30T05:25:00.405Z,35.94
2016-07-30T05:26:00.409Z,34.96
2016-07-30T05:27:00.410Z,34.41
2016-07-30T05:28:00.418Z,33.44
2016-07-30T05:29:00.413Z,32.28
2016-07-30T05:30:00.414Z,31.51
2016-07-30T05:31:00.413Z,30.66
2016-07-30T05:32:00.414Z,29.99
2016-07-30T05:33:00.417Z,29.21
2016-07-30T05:34:00.416Z,28.34
2016-07-30T05:35:00.417Z,28.26
2016-07-30T05:36:00.421Z,28.16
2016-07-30T05:37:00.422Z,27.39
2016-07-30T05:38:00.426Z,26.79
2016-07-30T05:39:00.425Z,26.61
2016-07-30T05:40:00.426Z,26.03
2016-07-30T05:41:00.426Z,26.03
2016-07-30T05:42:00.430Z,25.73
2016-07-30T05:43:00.430Z,25.54
2016-07-30T05:44:00.430Z,25.45
2016-07-30T05:45:00.446Z,25.55
2016-07-30T05:46:00.434Z,25.05
2016-07-30T05:47:00.454Z,24.97
2016-07-30T05:48:00.439Z,24.18
2016-07-30T05:49:00.438Z,24.18
2016-07-30T05:50:00.443Z,24.17
2016-07-30T05:51:00.443Z,24.56
2016-07-30T05:52:00.442Z,25.04
2016-07-30T05:53:00.447Z,25.82
2016-07-30T05:54:00.447Z,25.62
2016-07-30T05:55:00.451Z,25.13
2016-07-30T05:56:00.451Z,24.95
2016-07-30T05:57:00.450Z,24.95
2016-07-30T05:58:00.455Z,24.84
2016-07-30T05:59:00.455Z,25.13
2016-07-30T06:00:00.461Z,25.81
2016-07-30T06:01:00.459Z,26.29
2016-07-30T06:02:00.458Z,27.64
2016-07-30T06:03:00.463Z,28.99
2016-07-30T06:04:00.463Z,30.22
2016-07-30T06:05:00.466Z,31.37
2016-07-30T06:06:00.467Z,33.1
2016-07-30T06:07:00.470Z,34.62
2016-07-30T06:08:00.470Z,36.34
2016-07-30T06:09:00.475Z,38.16
2016-07-30T06:10:00.474Z,39.2
2016-07-30T06:11:00.480Z,41.42
2016-07-30T06:12:00.480Z,42.16
2016-07-30T06:13:00.480Z,43.11
2016-07-30T06:14:00.484Z,44.26
2016-07-30T06:15:00.488Z,44.06
2016-07-30T06:16:00.487Z,44.92
2016-07-30T06:17:00.487Z,45.01
2016-07-30T06:18:00.492Z,44.72
2016-07-30T06:19:00.492Z,44.06
2016-07-30T06:20:00.496Z,42.35
2016-07-30T06:21:00.496Z,40.55
2016-07-30T06:22:00.500Z,38.24
2016-07-30T06:23:00.500Z,36.83
2016-07-30T06:24:00.503Z,35.97
2016-07-30T06:25:00.504Z,35.03
2016-07-30T06:26:00.508Z,34.55
2016-07-30T06:27:00.508Z,33.39
2016-07-30T06:28:00.512Z,33.2
2016-07-30T06:29:00.512Z,32.25
2016-07-30T06:30:00.516Z,31.09
2016-07-30T06:31:00.516Z,29.47
2016-07-30T06:32:00.520Z,28.31
2016-07-30T06:33:00.520Z,27.66
2016-07-30T06:34:00.524Z,26.87
2016-07-30T06:35:00.527Z,26.78
2016-07-30T06:36:00.532Z,26.78
2016-07-30T06:37:00.528Z,26.88
2016-07-30T06:38:00.532Z,27.56
2016-07-30T06:39:00.532Z,28.03
2016-07-30T06:40:00.535Z,27.92
2016-07-30T06:41:00.536Z,27.34
2016-07-30T06:42:00.540Z,26.77
2016-07-30T06:43:00.540Z,26.39
2016-07-30T06:44:00.544Z,25.9
2016-07-30T06:45:00.545Z,26.1
2016-07-30T06:46:00.549Z,25.61
2016-07-30T06:47:00.548Z,25.51
2016-07-30T06:48:00.551Z,25.52
2016-07-30T06:49:00.553Z,24.93
2016-07-30T06:50:00.556Z,24.45
2016-07-30T06:51:00.561Z,23.88
2016-07-30T06:52:00.560Z,23.7
2016-07-30T06:53:00.565Z,23.3
2016-07-30T06:54:00.565Z,23.7
2016-07-30T06:55:00.569Z,23.98
2016-07-30T06:56:00.569Z,24.27
2016-07-30T06:57:00.573Z,25.62
2016-07-30T06:58:00.573Z,26.29
2016-07-30T06:59:00.577Z,26.28
2016-07-30T07:00:00.577Z,25.59
2016-07-30T07:01:00.582Z,25.21
2016-07-30T07:02:00.585Z,24.44
2016-07-30T07:03:00.586Z,24.35
2016-07-30T07:04:00.590Z,23.77
2016-07-30T07:05:00.590Z,22.61
2016-07-30T07:06:00.593Z,21.64
2016-07-30T07:07:00.594Z,20.76
2016-07-30T07:08:00.598Z,20.38
2016-07-30T07:09:00.612Z,20.09
2016-07-30T07:10:00.602Z,20.2
2016-07-30T07:11:00.606Z,20.01
2016-07-30T07:12:00.606Z,19.81
2016-07-30T07:13:00.611Z,19.81
2016-07-30T07:14:00.610Z,20.11
2016-07-30T07:15:00.614Z,19.62
2016-07-30T07:16:00.618Z,19.92
2016-07-30T07:17:00.618Z,19.32
2016-07-30T07:18:00.622Z,19.62
2016-07-30T07:19:00.622Z,19.43
2016-07-30T07:20:00.626Z,19.53
2016-07-30T07:21:00.636Z,19.81
2016-07-30T07:22:00.630Z,20.3
2016-07-30T07:23:00.634Z,20.39
2016-07-30T07:24:00.636Z,20.68
2016-07-30T07:25:00.638Z,21.27
2016-07-30T07:26:00.639Z,21.67
2016-07-30T07:27:00.643Z,22.04
2016-07-30T07:28:00.647Z,22.72
2016-07-30T07:29:00.647Z,23.79
2016-07-30T07:30:00.651Z,24.27
2016-07-30T07:31:00.651Z,24.16
2016-07-30T07:32:00.655Z,24.26
2016-07-30T07:33:00.654Z,24.35
2016-07-30T07:34:00.659Z,23.47
2016-07-30T07:35:00.663Z,22.41
2016-07-30T07:36:00.663Z,21.73
2016-07-30T07:37:00.672Z,20.67
2016-07-30T07:38:00.671Z,20.28
2016-07-30T07:39:00.671Z,20
2016-07-30T07:40:00.675Z,18.92
2016-07-30T07:41:00.675Z,18.14
2016-07-30T07:42:00.679Z,17.65
2016-07-30T07:43:00.687Z,17.86
2016-07-30T07:44:00.684Z,17.17
2016-07-30T07:45:00.690Z,16.69
2016-07-30T07:46:00.692Z,16.5
2016-07-30T07:47:00.692Z,16.4
2016-07-30T07:48:00.696Z,15.71
2016-07-30T07:49:00.696Z,15.33
2016-07-30T07:50:00.701Z,15.33
2016-07-30T07:51:00.704Z,14.74
2016-07-30T07:52:00.709Z,14.64
2016-07-30T07:53:00.709Z,14.94
2016-07-30T07:54:00.709Z,14.95
2016-07-30T07:55:00.721Z,14.45
2016-07-30T07:56:00.719Z,14.36
2016-07-30T07:57:00.728Z,14.16
2016-07-30T07:58:00.721Z,13.86
2016-07-30T07:59:00.724Z,13.47
2016-07-30T08:00:00.724Z,13.37
2016-07-30T08:01:00.729Z,12.68
2016-07-30T08:02:00.728Z,12.38
2016-07-30T08:03:00.749Z,12.29
2016-07-30T08:04:00.736Z,12.38
2016-07-30T08:05:00.736Z,11.99
2016-07-30T08:06:00.740Z,11.99
2016-07-30T08:07:00.744Z,11.79
2016-07-30T08:08:00.759Z,11.5
2016-07-30T08:09:00.748Z,11.7
2016-07-30T08:10:00.752Z,11.69
2016-07-30T08:11:00.752Z,11.5
2016-07-30T08:12:00.756Z,12.19
2016-07-30T08:13:00.761Z,11.69
2016-07-30T08:14:00.764Z,12.19
2016-07-30T08:15:00.770Z,12.29
2016-07-30T08:16:00.768Z,12.29
2016-07-30T08:17:00.776Z,12.28
2016-07-30T08:18:00.773Z,12.38
2016-07-30T08:19:00.777Z,12.57
2016-07-30T08:20:00.776Z,12.48
2016-07-30T08:21:00.780Z,11.98
2016-07-30T08:22:00.785Z,12.18
2016-07-30T08:23:00.784Z,12.09
2016-07-30T08:24:00.328Z,12.3
2016-07-30T08:25:00.789Z,11.7
2016-07-30T08:26:00.792Z,11.71
2016-07-30T08:27:00.797Z,11.81
2016-07-30T08:28:00.093Z,11.71
2016-07-30T08:29:00.805Z,11.8
2016-07-30T08:30:00.808Z,11.8
2016-07-30T08:31:00.808Z,11.7
2016-07-30T08:32:00.809Z,11.8
2016-07-30T08:33:00.813Z,12.49
2016-07-30T08:34:00.817Z,12.29
2016-07-30T08:35:00.817Z,12.38
2016-07-30T08:36:00.821Z,12.28
2016-07-30T08:37:00.824Z,12.18
2016-07-30T08:38:00.824Z,11.69
2016-07-30T08:39:00.372Z,11.69
2016-07-30T08:40:00.832Z,11.99
2016-07-30T08:41:00.840Z,11.6
2016-07-30T08:42:00.836Z,11.69
2016-07-30T08:43:00.852Z,11.8
2016-07-30T08:44:00.845Z,11.89
2016-07-30T08:45:00.844Z,11.59
2016-07-30T08:46:00.145Z,11.89
2016-07-30T08:47:00.849Z,12.3
2016-07-30T08:48:00.852Z,12.49
2016-07-30T08:49:00.857Z,13.28
2016-07-30T08:50:00.857Z,13.37
2016-07-30T08:51:00.861Z,13.17
2016-07-30T08:52:00.161Z,12.96
2016-07-30T08:53:00.877Z,13.26
2016-07-30T08:55:00.873Z,13.94
2016-07-30T08:56:00.176Z,14.14
2016-07-30T08:57:00.876Z,14.43
2016-07-30T08:58:00.189Z,15.13
2016-07-30T08:59:00.884Z,15.12
2016-07-30T09:00:00.885Z,15.12
2016-07-30T09:01:00.889Z,14.82
2016-07-30T09:02:00.897Z,14.62
2016-07-30T09:03:00.897Z,14.32
2016-07-30T09:04:00.898Z,14.53
2016-07-30T09:05:00.901Z,14.23
2016-07-30T09:06:00.906Z,14.04
2016-07-30T09:07:00.910Z,13.15
2016-07-30T09:08:00.909Z,13.25
2016-07-30T09:10:00.918Z,14.04
2016-07-30T09:11:00.917Z,14.23
2016-07-30T09:12:00.926Z,14.43
2016-07-30T09:13:00.926Z,15.03
2016-07-30T09:14:00.934Z,15.22
2016-07-30T09:15:00.929Z,15.41
2016-07-30T09:16:00.934Z,15.61
2016-07-30T09:17:00.938Z,15.41
2016-07-30T09:18:00.938Z,15.51
2016-07-30T09:19:00.942Z,15.52
2016-07-30T09:20:00.946Z,15.42
2016-07-30T09:21:00.950Z,15.42
2016-07-30T09:22:00.950Z,15.22
2016-07-30T09:23:00.955Z,14.62
2016-07-30T09:24:00.958Z,14.53
2016-07-30T09:25:00.962Z,14.44
2016-07-30T09:26:00.963Z,14.83
2016-07-30T09:27:00.967Z,14.64
2016-07-30T09:28:00.969Z,15.13
2016-07-30T09:29:00.975Z,15.73
2016-07-30T09:30:00.975Z,16.31
2016-07-30T09:31:00.978Z,16.9
2016-07-30T09:32:00.983Z,16.59
2016-07-30T09:33:00.983Z,17.48
2016-07-30T09:34:00.987Z,17.77
2016-07-30T09:35:00.991Z,17.57
2016-07-30T09:36:00.994Z,17.68
2016-07-30T09:37:00.999Z,17.68
2016-07-30T09:38:00.998Z,17.88
2016-07-30T09:39:01.003Z,17.68
2016-07-30T09:40:01.007Z,17.69
2016-07-30T09:41:01.007Z,16.69
2016-07-30T09:42:01.011Z,16.99
2016-07-30T09:43:01.015Z,17.09
2016-07-30T09:44:01.019Z,17.29
2016-07-30T09:45:01.019Z,17.88
2016-07-30T09:46:01.023Z,17.97
2016-07-30T09:47:01.027Z,18.26
2016-07-30T09:48:01.031Z,18.84
2016-07-30T09:49:01.031Z,18.93
2016-07-30T09:50:01.034Z,19.12
2016-07-30T09:51:01.047Z,19.6
2016-07-30T09:52:01.043Z,19.68
2016-07-30T09:53:01.055Z,20.27
2016-07-30T09:54:01.047Z,20.76
2016-07-30T09:55:01.051Z,21.53
2016-07-30T09:56:01.075Z,22.11
2016-07-30T09:57:01.060Z,22.19
2016-07-30T09:58:01.059Z,23.17
2016-07-30T09:59:01.064Z,23.55
2016-07-30T10:00:01.067Z,24.13
2016-07-30T10:01:01.071Z,24.81
2016-07-30T10:02:01.072Z,24.7
2016-07-30T10:03:01.076Z,25.59
2016-07-30T10:04:00.375Z,25.67
2016-07-30T10:05:01.084Z,25.85
2016-07-30T10:06:01.084Z,26.73
2016-07-30T10:07:00.384Z,27.22
2016-07-30T10:08:01.092Z,27.6
2016-07-30T10:09:01.095Z,27.98
2016-07-30T10:10:01.096Z,27.98
2016-07-30T10:11:01.099Z,28.06
2016-07-30T10:12:01.104Z,28.65
2016-07-30T10:13:01.108Z,28.36
2016-07-30T10:14:01.108Z,28.85
2016-07-30T10:15:01.112Z,28.74
2016-07-30T10:16:01.116Z,28.83
2016-07-30T10:17:01.128Z,28.83
2016-07-30T10:18:01.120Z,29.03
2016-07-30T10:19:01.124Z,28.93
2016-07-30T10:20:01.128Z,28.72
2016-07-30T10:21:01.132Z,28.72
2016-07-30T10:22:01.132Z,29.02
2016-07-30T10:23:01.135Z,28.82
2016-07-30T10:24:01.140Z,28.63
2016-07-30T10:25:01.144Z,29.2
2016-07-30T10:26:01.144Z,29.39
2016-07-30T10:27:01.148Z,29.79
2016-07-30T10:28:01.152Z,30.08
2016-07-30T10:29:01.156Z,30.27
2016-07-30T10:30:01.161Z,30.27
2016-07-30T10:31:01.169Z,30.18
2016-07-30T10:32:01.164Z,30.27
2016-07-30T10:33:01.168Z,29.88
2016-07-30T10:34:01.172Z,29.69
2016-07-30T10:35:01.172Z,29.69
2016-07-30T10:36:01.176Z,29.69
2016-07-30T10:37:01.179Z,29.58
2016-07-30T10:38:01.197Z,29.58
2016-07-30T10:39:01.184Z,29.58
2016-07-30T10:40:01.187Z,29.68
2016-07-30T10:41:01.193Z,29.77
2016-07-30T10:42:01.197Z,29.97
2016-07-30T10:43:01.196Z,30.16
2016-07-30T10:44:01.200Z,30.16
2016-07-30T10:45:01.204Z,30.55
2016-07-30T10:46:01.208Z,30.75
2016-07-30T10:47:00.504Z,30.75
2016-07-30T10:48:01.213Z,30.55
2016-07-30T10:49:01.217Z,30.16
2016-07-30T10:50:01.220Z,30.26
2016-07-30T10:51:01.221Z,30.46
2016-07-30T10:52:01.224Z,30.46
2016-07-30T10:53:01.229Z,30.55
2016-07-30T10:54:01.232Z,30.65
2016-07-30T10:55:01.237Z,30.44
2016-07-30T10:56:01.248Z,30.35
2016-07-30T10:57:01.241Z,30.25
2016-07-30T10:58:01.248Z,30.35
2016-07-30T10:59:01.249Z,30.64
2016-07-30T11:00:01.253Z,30.83
2016-07-30T11:01:01.253Z,30.72
2016-07-30T11:02:01.257Z,30.72
2016-07-30T11:03:01.260Z,30.82
2016-07-30T11:04:01.264Z,30.82
2016-07-30T11:05:01.264Z,30.91
2016-07-30T11:06:01.268Z,31.01
2016-07-30T11:07:01.272Z,31.2
2016-07-30T11:08:01.273Z,31.6
2016-07-30T11:09:01.277Z,31.88
2016-07-30T11:10:01.286Z,32.17
2016-07-30T11:11:01.284Z,31.67
2016-07-30T11:12:01.289Z,32.26
2016-07-30T11:13:01.302Z,33.04
2016-07-30T11:14:01.293Z,33.23
2016-07-30T11:15:01.297Z,32.84
2016-07-30T11:16:01.301Z,33.14
2016-07-30T11:17:01.303Z,33.23
2016-07-30T11:18:01.306Z,33.04
2016-07-30T11:19:01.310Z,33.23
2016-07-30T11:20:01.313Z,32.82
2016-07-30T11:21:01.322Z,32.92
2016-07-30T11:22:01.317Z,32.82
2016-07-30T11:23:01.322Z,32.84
2016-07-30T11:24:01.326Z,32.34
2016-07-30T11:25:01.329Z,33.02
2016-07-30T11:26:01.330Z,33.04
2016-07-30T11:27:00.628Z,33.02
2016-07-30T11:28:00.633Z,33.31
2016-07-30T11:29:01.342Z,33.51
2016-07-30T11:30:01.341Z,33.7
2016-07-30T11:31:01.345Z,33.22
2016-07-30T11:32:01.349Z,33.51
2016-07-30T11:33:01.353Z,33.9
2016-07-30T11:34:01.353Z,33.7
2016-07-30T11:35:01.358Z,33.61
2016-07-30T11:36:01.361Z,33.7
2016-07-30T11:37:01.361Z,33.61
2016-07-30T11:38:01.366Z,33.22
2016-07-30T11:39:01.370Z,33.22
2016-07-30T11:40:01.374Z,33.22
2016-07-30T11:41:01.389Z,33.31
2016-07-30T11:42:01.378Z,33.02
2016-07-30T11:43:01.382Z,33.41
2016-07-30T11:44:01.390Z,33.12
2016-07-30T11:45:01.389Z,33.02
2016-07-30T11:46:01.390Z,33.02
2016-07-30T11:47:01.394Z,33.22
2016-07-30T11:48:01.397Z,33.02
2016-07-30T11:49:01.402Z,33.22
2016-07-30T11:50:01.402Z,33.41
2016-07-30T11:51:01.406Z,33.31
2016-07-30T11:52:01.410Z,33.12
2016-07-30T11:53:01.413Z,33.31
2016-07-30T11:54:01.414Z,33.51
2016-07-30T11:55:01.417Z,34.39
2016-07-30T11:56:01.422Z,34.29
2016-07-30T11:57:01.426Z,34.39
2016-07-30T11:58:01.430Z,34.39
2016-07-30T11:59:01.430Z,34.19
2016-07-30T12:00:01.434Z,33.7
2016-07-30T12:01:01.438Z,33.89
2016-07-30T12:02:01.442Z,33.98
2016-07-30T12:03:01.443Z,34.18
2016-07-30T12:04:01.446Z,34.28
2016-07-30T12:05:01.450Z,34.28
2016-07-30T12:06:01.455Z,34.57
2016-07-30T12:07:00.751Z,34.38
2016-07-30T12:08:01.458Z,34.47
2016-07-30T12:09:01.462Z,34.57
2016-07-30T12:10:01.462Z,34.57
2016-07-30T12:11:01.467Z,34.96
2016-07-30T12:12:01.470Z,34.57
2016-07-30T12:13:01.475Z,34.96
2016-07-30T12:14:01.475Z,35.06
2016-07-30T12:15:01.478Z,34.96
2016-07-30T12:16:01.483Z,34.77
2016-07-30T12:17:01.487Z,34.77
2016-07-30T12:18:01.487Z,34.96
2016-07-30T12:19:01.491Z,35.06
2016-07-30T12:20:01.494Z,34.86
2016-07-30T12:21:01.503Z,35.35
2016-07-30T12:22:01.499Z,35.33
2016-07-30T12:23:01.502Z,35.16
2016-07-30T12:24:01.519Z,35.25
2016-07-30T12:25:01.511Z,35.06
2016-07-30T12:26:01.516Z,35.33
2016-07-30T12:27:01.516Z,35.24
2016-07-30T12:28:01.519Z,35.24
2016-07-30T12:29:01.524Z,35.24
2016-07-30T12:30:01.527Z,35.33
2016-07-30T12:31:01.531Z,35.14
2016-07-30T12:32:01.531Z,35.24
2016-07-30T12:33:01.535Z,35.33
2016-07-30T12:34:00.835Z,35.63
2016-07-30T12:35:01.544Z,35.53
2016-07-30T12:36:01.544Z,35.63
2016-07-30T12:37:01.547Z,35.63
2016-07-30T12:38:01.551Z,35.43
2016-07-30T12:39:01.551Z,35.33
2016-07-30T12:40:01.096Z,35.24
2016-07-30T12:41:01.559Z,35.24
2016-07-30T12:42:01.563Z,35.04
2016-07-30T12:43:01.563Z,35.43
2016-07-30T12:44:01.568Z,35.53
2016-07-30T12:45:01.572Z,35.63
2016-07-30T12:46:01.576Z,35.8
2016-07-30T12:47:01.576Z,35.9
2016-07-30T12:48:01.580Z,35.9
2016-07-30T12:49:01.584Z,35.9
2016-07-30T12:50:01.588Z,36.58
2016-07-30T12:51:01.591Z,36.19
2016-07-30T12:52:01.592Z,36.78
2016-07-30T12:53:01.596Z,37.07
2016-07-30T12:54:01.599Z,37.46
2016-07-30T12:56:01.605Z,37.55
2016-07-30T12:57:01.607Z,37.85
2016-07-30T12:58:01.613Z,37.55
2016-07-30T12:59:01.616Z,37.27
2016-07-30T13:00:01.616Z,37.37
2016-07-30T13:01:01.620Z,37.87
2016-07-30T13:02:01.624Z,37.67